Time;durP1;ratioP1;P1;durP2;ratioP2;P2;SDS_P1;SDS_P2;PMS_P1;PMS_P2;Temp;Humidity;BMP_temperature;BMP_pressure;BME280_temperature;BME280_humidity;BME280_pressure;Samples;Min_cycle;Max_cycle;Signal;HPM_P1;HPM_P2
2021/01/11 00:01:47;;;;;;;109.95;57.20;;;;;;;-7.26;75.82;96585.78;5099227;28;20062;-56
2021/01/11 00:04:14;;;;;;;96.70;50.00;;;;;;;-7.28;76.33;96583.34;5084816;28;20046;-56
2021/01/11 00:06:42;;;;;;;95.97;51.50;;;;;;;-7.26;76.44;96580.66;5092993;28;20281;-57
2021/01/11 00:09:09;;;;;;;101.55;53.90;;;;;;;-7.35;76.22;96577.09;5089897;28;20055;-56
2021/01/11 00:11:38;;;;;;;99.55;52.63;;;;;;;-7.35;76.59;96576.28;5106925;28;20491;-57
2021/01/11 00:14:05;;;;;;;97.47;52.35;;;;;;;-7.29;76.20;96579.16;5049682;28;20043;-56
2021/01/11 00:16:33;;;;;;;103.32;53.72;;;;;;;-7.29;76.60;96580.91;5102275;27;20064;-56
2021/01/11 00:19:01;;;;;;;108.22;56.10;;;;;;;-7.31;76.85;96582.78;5071224;28;20044;-56
2021/01/11 00:21:29;;;;;;;102.55;54.38;;;;;;;-7.34;76.98;96577.91;5085257;28;20302;-56
2021/01/11 00:23:56;;;;;;;102.80;54.42;;;;;;;-7.32;76.78;96578.63;5091476;28;20050;-56
2021/01/11 00:26:23;;;;;;;98.82;54.80;;;;;;;-7.32;76.66;96578.63;5092913;28;20096;-57
2021/01/11 00:28:51;;;;;;;100.72;57.75;;;;;;;-7.36;76.58;96579.78;5090300;28;20052;-56
2021/01/11 00:31:23;;;;;;;108.50;58.90;;;;;;;-7.37;76.07;96573.03;5090981;28;20048;-56
2021/01/11 00:33:52;;;;;;;109.65;58.25;;;;;;;-7.39;76.68;96580.03;5098570;28;20040;-56
2021/01/11 00:36:21;;;;;;;120.65;59.72;;;;;;;-7.40;76.35;96579.25;5068830;28;20043;-56
2021/01/11 00:38:49;;;;;;;108.50;57.58;;;;;;;-7.41;76.31;96572.50;5097848;28;20066;-56
2021/01/11 00:41:19;;;;;;;108.65;58.78;;;;;;;-7.42;75.95;96571.66;5099131;28;20044;-56
2021/01/11 00:43:47;;;;;;;104.45;56.25;;;;;;;-7.47;75.66;96565.28;5057501;28;20051;-56
2021/01/11 00:46:25;;;;;;;98.63;55.55;;;;;;;-7.52;75.47;96562.31;5095976;28;20415;-56
2021/01/11 00:48:55;;;;;;;112.82;58.47;;;;;;;-7.65;75.83;96560.75;5084602;27;20155;-56
2021/01/11 00:51:23;;;;;;;103.45;60.25;;;;;;;-7.77;76.29;96560.00;5078777;28;20050;-57
2021/01/11 00:53:56;;;;;;;104.85;57.75;;;;;;;-7.88;76.26;96562.63;5087824;28;20504;-56
2021/01/11 00:56:23;;;;;;;111.57;60.42;;;;;;;-7.86;76.74;96568.44;5091995;28;20051;-56
2021/01/11 00:58:50;;;;;;;107.50;56.53;;;;;;;-7.85;76.55;96564.94;5075376;28;20066;-56
2021/01/11 01:01:22;;;;;;;102.18;54.75;;;;;;;-7.89;77.01;96564.38;5089324;28;20358;-59
2021/01/11 01:03:53;;;;;;;111.03;58.70;;;;;;;-7.86;76.53;96568.44;5077979;28;20052;-56
2021/01/11 01:06:21;;;;;;;116.78;60.80;;;;;;;-7.84;76.53;96561.44;5085935;28;20047;-56
2021/01/11 01:08:49;;;;;;;108.93;55.95;;;;;;;-7.91;76.13;96555.16;5098341;28;20058;-56
2021/01/11 01:11:16;;;;;;;133.55;69.18;;;;;;;-7.96;76.54;96560.66;5096378;28;20043;-56
2021/01/11 01:13:43;;;;;;;116.53;63.30;;;;;;;-8.03;76.47;96554.44;5095317;28;20455;-56
2021/01/11 01:16:13;;;;;;;108.35;59.13;;;;;;;-8.09;76.93;96553.19;5107202;27;20414;-56
2021/01/11 01:18:41;;;;;;;106.43;57.30;;;;;;;-8.17;76.97;96555.50;5132665;27;20538;-56
2021/01/11 01:21:08;;;;;;;106.30;57.13;;;;;;;-8.22;77.00;96550.78;5104558;27;20059;-56
2021/01/11 01:23:35;;;;;;;116.18;58.30;;;;;;;-8.17;76.68;96555.50;5110190;27;20039;-56
2021/01/11 01:26:03;;;;;;;110.60;57.78;;;;;;;-8.19;77.33;96549.72;5129288;27;20051;-56
2021/01/11 01:28:30;;;;;;;110.72;57.85;;;;;;;-8.20;77.03;96550.66;5110844;27;20085;-56
2021/01/11 01:30:58;;;;;;;96.85;53.35;;;;;;;-8.15;77.03;96552.84;5114237;27;20038;-56
2021/01/11 01:33:26;;;;;;;109.30;54.55;;;;;;;-8.21;77.31;96549.03;5125922;27;20043;-55
2021/01/11 01:35:53;;;;;;;113.50;59.08;;;;;;;-8.30;76.93;96544.63;5121300;27;22023;-62
2021/01/11 01:38:20;;;;;;;99.93;51.22;;;;;;;-8.27;77.46;96554.63;5090364;27;20047;-67
2021/01/11 01:40:47;;;;;;;93.32;48.17;;;;;;;-8.23;77.37;96550.91;5099267;27;20054;-56
2021/01/11 01:43:14;;;;;;;117.53;58.78;;;;;;;-8.28;77.72;96542.75;5109424;27;20051;-56
2021/01/11 01:45:41;;;;;;;103.97;53.78;;;;;;;-8.36;78.15;96549.31;5128216;27;20539;-56
2021/01/11 01:48:10;;;;;;;102.82;55.70;;;;;;;-8.34;78.27;96546.63;5131908;27;20051;-56
2021/01/11 01:50:40;;;;;;;120.90;58.00;;;;;;;-8.35;78.52;96552.66;5111614;27;20043;-56
2021/01/11 01:53:08;;;;;;;107.10;56.28;;;;;;;-8.26;79.04;96541.72;5101343;27;20055;-56
2021/01/11 01:55:37;;;;;;;101.18;54.60;;;;;;;-8.13;78.75;96545.88;5116047;27;20069;-55
2021/01/11 01:58:08;;;;;;;92.78;49.03;;;;;;;-8.03;78.81;96546.75;5096108;27;20058;-56
2021/01/11 02:00:35;;;;;;;81.97;44.38;;;;;;;-7.99;78.40;96550.66;5111407;27;20399;-56
2021/01/11 02:03:04;;;;;;;92.57;52.10;;;;;;;-7.97;78.24;96551.34;5128391;27;20066;-56
2021/01/11 02:05:31;;;;;;;87.82;47.30;;;;;;;-7.89;77.88;96553.31;5122998;27;20058;-56
2021/01/11 02:08:20;;;;;;;87.95;46.63;;;;;;;-7.81;78.18;96547.56;5116309;27;20054;-56
2021/01/11 02:11:15;;;;;;;85.65;45.10;;;;;;;-7.75;77.20;96550.44;5132718;27;20043;-56
2021/01/11 02:13:53;;;;;;;83.22;41.40;;;;;;;-7.65;76.93;96555.63;5108856;27;20050;-56
2021/01/11 02:16:39;;;;;;;77.07;39.58;;;;;;;-7.52;76.62;96555.41;5107772;27;20425;-56
2021/01/11 02:19:16;;;;;;;76.03;40.90;;;;;;;-7.45;76.69;96553.16;5114715;27;20468;-56
2021/01/11 02:22:07;;;;;;;69.15;40.33;;;;;;;-7.46;76.29;96543.84;5113181;27;20043;-56
2021/01/11 02:25:12;;;;;;;75.72;39.00;;;;;;;-7.37;76.22;96548.22;5095634;27;20047;-57
2021/01/11 02:27:52;;;;;;;81.82;40.13;;;;;;;-7.28;76.01;96544.06;5129951;27;20046;-56
2021/01/11 02:30:37;;;;;;;72.75;39.25;;;;;;;-7.24;75.71;96542.06;5097624;27;20051;-56
2021/01/11 02:33:11;;;;;;;75.80;37.83;;;;;;;-7.24;76.06;96542.06;5128816;27;20090;-56
2021/01/11 02:35:47;;;;;;;76.50;40.78;;;;;;;-7.21;75.88;96534.13;5117980;27;20043;-57
2021/01/11 02:38:20;;;;;;;76.22;40.80;;;;;;;-7.24;75.93;96534.38;5111262;27;20051;-56
2021/01/11 02:40:49;;;;;;;55.92;33.78;;;;;;;-7.20;76.09;96528.84;5105550;27;20050;-56
2021/01/11 02:43:16;;;;;;;66.13;35.78;;;;;;;-7.06;75.91;96534.56;5093718;27;20542;-56
2021/01/11 02:45:44;;;;;;;68.55;36.97;;;;;;;-7.02;75.69;96539.34;5109396;27;20439;-56
2021/01/11 02:48:38;;;;;;;68.80;38.28;;;;;;;-6.95;75.14;96537.88;5091722;27;20391;-56
2021/01/11 02:51:05;;;;;;;69.80;42.15;;;;;;;-6.93;74.80;96531.78;5119221;27;20714;-56
2021/01/11 02:53:37;;;;;;;66.70;38.47;;;;;;;-6.92;75.39;96526.53;5091166;27;20378;-56
2021/01/11 02:56:08;;;;;;;69.53;38.60;;;;;;;-6.89;75.29;96523.69;5125629;27;20447;-54
2021/01/11 02:58:50;;;;;;;79.97;40.53;;;;;;;-6.86;75.57;96526.00;5132658;27;20042;-55
2021/01/11 03:01:20;;;;;;;77.10;41.05;;;;;;;-6.81;75.47;96523.84;5093582;27;20046;-55
2021/01/11 03:03:50;;;;;;;62.30;36.00;;;;;;;-6.77;75.53;96519.28;5105622;27;20366;-54
2021/01/11 03:06:20;;;;;;;80.05;42.85;;;;;;;-6.75;75.88;96521.72;5130672;27;20043;-55
2021/01/11 03:08:47;;;;;;;76.28;42.00;;;;;;;-6.69;75.68;96526.31;5114324;27;20402;-54
2021/01/11 03:11:16;;;;;;;63.47;35.13;;;;;;;-6.65;74.94;96527.66;5108276;27;20474;-55
2021/01/11 03:13:48;;;;;;;71.72;37.10;;;;;;;-6.63;74.86;96525.78;5109307;27;20047;-54
2021/01/11 03:16:15;;;;;;;66.22;35.45;;;;;;;-6.65;74.88;96520.78;5102564;27;20675;-54
2021/01/11 03:18:42;;;;;;;64.13;35.95;;;;;;;-6.64;74.78;96519.81;5099281;27;20050;-54
2021/01/11 03:21:09;;;;;;;60.00;33.45;;;;;;;-6.60;74.40;96525.53;5094007;27;20047;-55
2021/01/11 03:23:37;;;;;;;62.15;35.72;;;;;;;-6.58;74.23;96522.81;5113491;27;20424;-55
2021/01/11 03:26:04;;;;;;;64.88;37.58;;;;;;;-6.60;74.35;96525.53;5081054;27;20406;-55
2021/01/11 03:28:32;;;;;;;65.18;36.25;;;;;;;-6.67;74.48;96525.25;5111444;27;20051;-57
2021/01/11 03:30:59;;;;;;;61.30;34.10;;;;;;;-6.76;74.76;96520.09;5104463;27;20054;-54
2021/01/11 03:33:26;;;;;;;55.22;30.95;;;;;;;-6.76;74.84;96517.53;5111936;27;20471;-55
2021/01/11 03:35:59;;;;;;;53.40;26.65;;;;;;;-6.75;74.40;96516.59;5095554;28;20047;-54
2021/01/11 03:38:27;;;;;;;48.22;26.30;;;;;;;-6.77;74.68;96519.28;5117851;27;20048;-54
2021/01/11 03:41:07;;;;;;;47.15;24.92;;;;;;;-6.80;74.91;96517.78;5112633;27;20047;-55
2021/01/11 03:43:38;;;;;;;45.08;23.08;;;;;;;-6.72;74.08;96518.88;5105195;27;20066;-55
2021/01/11 03:46:06;;;;;;;46.45;24.23;;;;;;;-6.70;73.54;96511.84;5118621;28;20050;-55
2021/01/11 03:48:33;;;;;;;40.83;24.40;;;;;;;-6.76;74.15;96512.38;5079700;28;20188;-55
2021/01/11 03:51:01;;;;;;;39.63;22.30;;;;;;;-6.77;74.59;96505.63;5114802;28;20328;-55
2021/01/11 03:53:28;;;;;;;41.25;20.75;;;;;;;-6.85;74.30;96507.13;5086924;27;20042;-55
2021/01/11 03:55:55;;;;;;;37.13;20.30;;;;;;;-6.91;74.06;96501.69;5082342;28;20059;-54
2021/01/11 03:58:23;;;;;;;39.25;19.60;;;;;;;-6.89;73.54;96513.44;5108157;28;20043;-55
2021/01/11 04:00:51;;;;;;;28.02;16.23;;;;;;;-6.94;73.58;96505.31;5109858;28;20537;-55
2021/01/11 04:03:19;;;;;;;33.60;18.33;;;;;;;-6.93;73.39;96504.38;5077159;28;20040;-54
2021/01/11 04:05:48;;;;;;;31.88;17.50;;;;;;;-6.91;73.32;96510.19;5083737;27;20058;-54
2021/01/11 04:08:15;;;;;;;31.95;16.80;;;;;;;-6.91;73.26;96512.75;5108293;27;20050;-55
2021/01/11 04:10:42;;;;;;;34.17;18.02;;;;;;;-6.92;72.78;96510.34;5127175;27;20538;-55
2021/01/11 04:13:10;;;;;;;33.85;19.13;;;;;;;-6.97;73.11;96521.00;5098774;27;20434;-55
2021/01/11 04:15:38;;;;;;;40.60;21.63;;;;;;;-7.02;73.14;96526.50;5128661;27;20495;-55
2021/01/11 04:18:05;;;;;;;37.53;19.40;;;;;;;-7.12;73.16;96523.06;5113517;27;20054;-55
2021/01/11 04:20:32;;;;;;;31.65;19.98;;;;;;;-7.23;73.50;96521.44;5120458;27;20051;-54
2021/01/11 04:23:01;;;;;;;40.40;20.70;;;;;;;-7.30;73.95;96510.06;5082769;27;20039;-55
2021/01/11 04:25:29;;;;;;;38.47;20.92;;;;;;;-7.33;74.40;96516.25;5112280;27;20055;-55
2021/01/11 04:27:57;;;;;;;31.38;18.77;;;;;;;-7.36;74.62;96513.94;5111572;27;20046;-54
2021/01/11 04:30:26;;;;;;;33.92;19.55;;;;;;;-7.31;74.58;96516.13;5118187;27;20076;-55
2021/01/11 04:32:54;;;;;;;33.90;20.25;;;;;;;-7.34;74.93;96521.53;5079143;27;20704;-54
2021/01/11 04:35:25;;;;;;;37.85;22.15;;;;;;;-7.35;74.82;96514.78;5112606;27;20047;-55
2021/01/11 04:37:53;;;;;;;37.03;20.92;;;;;;;-7.36;75.15;96513.94;5110326;27;20058;-64
2021/01/11 04:40:20;;;;;;;33.08;17.73;;;;;;;-7.36;74.66;96515.72;5118731;27;20051;-56
2021/01/11 04:42:47;;;;;;;33.38;18.52;;;;;;;-7.38;74.61;96520.16;5107653;27;20051;-55
2021/01/11 04:45:16;;;;;;;28.80;19.10;;;;;;;-7.43;75.06;96513.66;5110290;27;20697;-54
2021/01/11 04:47:44;;;;;;;30.17;17.20;;;;;;;-7.49;74.76;96514.19;5133583;27;20043;-55
2021/01/11 04:50:12;;;;;;;35.00;18.02;;;;;;;-7.57;74.60;96511.44;5097312;27;20196;-62
2021/01/11 04:52:39;;;;;;;35.13;19.45;;;;;;;-7.57;74.58;96516.56;5103637;27;20452;-58
2021/01/11 04:55:08;;;;;;;34.05;20.13;;;;;;;-7.60;75.32;96509.13;5110789;27;20054;-55
2021/01/11 04:57:40;;;;;;;34.17;19.85;;;;;;;-7.65;75.48;96516.38;5098978;27;20078;-55
2021/01/11 05:00:09;;;;;;;48.53;25.80;;;;;;;-7.55;75.69;96513.88;5088258;27;20054;-59
2021/01/11 05:02:44;;;;;;;38.97;21.83;;;;;;;-7.57;75.34;96509.69;5110307;27;22315;-62
2021/01/11 05:05:12;;;;;;;35.08;18.55;;;;;;;-7.64;74.82;96505.19;5117909;27;20051;-56
2021/01/11 05:07:40;;;;;;;30.38;15.25;;;;;;;-7.63;74.46;96514.50;5104283;27;20070;-55
2021/01/11 05:10:09;;;;;;;25.85;15.52;;;;;;;-7.66;75.14;96512.19;5118565;27;20055;-54
2021/01/11 05:12:36;;;;;;;21.42;13.80;;;;;;;-7.70;74.46;96519.31;5118568;27;20047;-59
2021/01/11 05:15:21;;;;;;;27.67;16.95;;;;;;;-7.72;74.07;96524.59;5118176;27;20051;-54
2021/01/11 05:17:49;;;;;;;36.20;16.27;;;;;;;-7.76;73.86;96524.97;5100972;27;20066;-55
2021/01/11 05:20:24;;;;;;;30.15;15.55;;;;;;;-7.80;73.42;96521.81;5119597;27;20047;-55
2021/01/11 05:22:53;;;;;;;31.85;15.98;;;;;;;-7.82;73.89;96523.72;5109818;27;20190;-56
2021/01/11 05:25:23;;;;;;;33.13;17.05;;;;;;;-7.91;73.56;96529.56;5094600;27;20521;-57
2021/01/11 05:28:14;;;;;;;39.35;20.08;;;;;;;-7.99;73.65;96527.63;5106489;27;20069;-54
2021/01/11 05:30:46;;;;;;;38.45;21.38;;;;;;;-8.10;74.17;96531.06;5107727;27;20377;-55
2021/01/11 05:33:24;;;;;;;50.30;27.58;;;;;;;-8.11;74.20;96528.59;5114151;27;20494;-58
2021/01/11 05:36:06;;;;;;;47.13;26.50;;;;;;;-8.12;73.98;96532.94;5110480;27;20054;-55
2021/01/11 05:38:46;;;;;;;49.22;27.05;;;;;;;-8.16;74.53;96536.66;5110650;27;20058;-56
2021/01/11 05:41:19;;;;;;;55.30;27.90;;;;;;;-8.23;74.69;96536.34;5110385;27;20047;-59
2021/01/11 05:44:05;;;;;;;51.53;28.77;;;;;;;-8.20;75.08;96533.53;5115570;27;20039;-56
2021/01/11 05:46:32;;;;;;;52.40;30.20;;;;;;;-8.18;74.93;96534.25;5110471;27;20058;-55
2021/01/11 05:49:05;;;;;;;49.92;25.17;;;;;;;-8.07;74.99;96540.25;5100367;27;20047;-54
2021/01/11 05:51:34;;;;;;;48.38;26.70;;;;;;;-8.08;75.35;96544.56;5096868;27;20070;-55
2021/01/11 05:54:01;;;;;;;54.72;25.02;;;;;;;-8.06;75.32;96540.09;5103519;27;20471;-55
2021/01/11 05:56:55;;;;;;;48.60;27.17;;;;;;;-8.05;75.34;96544.28;5106687;27;20047;-55
2021/01/11 05:59:23;;;;;;;44.45;26.45;;;;;;;-7.96;75.63;96552.19;5087638;27;20054;-56
2021/01/11 06:01:58;;;;;;;52.00;28.00;;;;;;;-7.97;75.29;96545.44;5107387;27;20035;-54
2021/01/11 06:04:27;;;;;;;53.30;27.80;;;;;;;-7.98;75.83;96551.50;5121466;27;20536;-55
2021/01/11 06:06:56;;;;;;;50.58;28.90;;;;;;;-8.06;76.27;96547.78;5103261;27;20039;-55
2021/01/11 06:09:23;;;;;;;45.90;25.95;;;;;;;-7.96;75.97;96552.19;5091783;27;20043;-56
2021/01/11 06:11:51;;;;;;;51.50;26.90;;;;;;;-7.88;75.98;96545.50;5099290;27;20043;-55
2021/01/11 06:14:19;;;;;;;52.13;27.20;;;;;;;-7.76;75.13;96553.94;5111312;27;20050;-54
2021/01/11 06:16:46;;;;;;;47.63;25.73;;;;;;;-7.75;75.13;96553.00;5078386;28;20118;-55
2021/01/11 06:19:14;;;;;;;49.70;25.30;;;;;;;-7.79;75.15;96549.06;5087576;27;20059;-55
2021/01/11 06:21:49;;;;;;;57.33;27.75;;;;;;;-7.72;74.96;96549.38;5087369;28;20333;-61
2021/01/11 06:24:18;;;;;;;53.88;28.23;;;;;;;-7.67;74.92;96546.44;5089812;28;20035;-55
2021/01/11 06:26:46;;;;;;;52.47;29.02;;;;;;;-7.62;74.72;96549.44;5087119;28;20059;-55
2021/01/11 06:29:30;;;;;;;59.20;31.42;;;;;;;-7.63;74.63;96551.16;5072527;28;20510;-54
2021/01/11 06:32:21;;;;;;;66.43;35.47;;;;;;;-7.59;74.13;96534.63;5103060;27;20062;-55
2021/01/11 06:34:49;;;;;;;57.78;36.05;;;;;;;-7.54;74.63;96548.81;5064186;28;20052;-55
2021/01/11 06:37:24;;;;;;;64.95;31.20;;;;;;;-7.54;74.64;96549.59;5094098;28;20056;-54
2021/01/11 06:39:56;;;;;;;55.78;30.73;;;;;;;-7.49;74.41;96544.94;5092052;28;20044;-58
2021/01/11 06:42:24;;;;;;;68.60;33.33;;;;;;;-7.47;74.28;96557.59;5088886;28;20043;-55
2021/01/11 06:44:54;;;;;;;65.15;34.30;;;;;;;-7.49;74.53;96555.19;5090858;28;20067;-56
2021/01/11 06:47:29;;;;;;;58.58;33.47;;;;;;;-7.52;75.20;96554.63;5069352;28;20063;-61
2021/01/11 06:50:07;;;;;;;61.72;27.77;;;;;;;-7.49;75.13;96554.34;5083500;28;20055;-55
2021/01/11 06:52:36;;;;;;;51.75;31.60;;;;;;;-7.43;74.75;96549.53;5080017;28;20558;-56
2021/01/11 06:55:15;;;;;;;54.53;26.75;;;;;;;-7.39;74.61;96554.41;5087236;28;20047;-55
2021/01/11 06:57:47;;;;;;;51.88;27.67;;;;;;;-7.36;74.52;96556.72;5090536;28;20043;-58
2021/01/11 07:00:18;;;;;;;56.03;29.88;;;;;;;-7.35;73.91;96560.91;5070123;28;20040;-55
2021/01/11 07:02:46;;;;;;;47.10;25.13;;;;;;;-7.33;74.42;96571.84;5059457;28;20052;-54
2021/01/11 07:05:38;;;;;;;57.88;27.15;;;;;;;-7.34;74.03;96563.34;5075754;28;20463;-57
2021/01/11 07:08:07;;;;;;;50.30;27.67;;;;;;;-7.28;73.89;96562.03;5072952;28;20204;-55
2021/01/11 07:10:36;;;;;;;53.20;27.27;;;;;;;-7.42;74.48;96547.78;5081339;28;20070;-54
2021/01/11 07:13:31;;;;;;;50.58;27.70;;;;;;;-7.28;74.61;96567.16;5092455;27;20056;-59
2021/01/11 07:16:00;;;;;;;;;;;;;;;-7.31;74.47;96562.25;5102186;27;20051;-55
2021/01/11 07:18:39;;;;;;;58.40;28.55;;;;;;;-7.30;74.27;96569.00;5112620;27;19918;-59
2021/01/11 07:21:25;;;;;;;50.00;25.67;;;;;;;-7.27;73.92;96561.91;5128334;27;20522;-54
2021/01/11 07:23:59;;;;;;;61.90;29.40;;;;;;;-7.24;74.07;96571.09;5126805;27;20039;-54
2021/01/11 07:26:33;;;;;;;43.50;24.23;;;;;;;-7.17;73.68;96569.63;5130119;27;20047;-55
2021/01/11 07:29:06;;;;;;;39.13;24.02;;;;;;;-7.14;73.55;96574.50;5078513;27;20050;-54
2021/01/11 07:31:39;;;;;;;40.10;24.38;;;;;;;-7.18;72.84;96556.94;5131933;27;20541;-58
2021/01/11 07:34:13;;;;;;;49.00;25.55;;;;;;;-7.06;73.10;96581.56;5130742;27;20062;-55
2021/01/11 07:36:44;;;;;;;40.47;23.08;;;;;;;-7.02;72.75;96567.53;5090171;27;20051;-61
2021/01/11 07:39:20;;;;;;;42.00;25.80;;;;;;;-7.02;72.94;96567.53;5098303;27;20284;-59
2021/01/11 07:41:55;;;;;;;44.33;24.25;;;;;;;-6.97;72.61;96562.03;5109791;27;20051;-57
2021/01/11 07:44:27;;;;;;;34.90;23.08;;;;;;;-7.02;72.44;96576.97;5091537;27;20583;-55
2021/01/11 07:47:01;;;;;;;39.45;20.77;;;;;;;-7.13;72.81;96563.31;5129068;27;20046;-56
2021/01/11 07:49:33;;;;;;;36.67;22.48;;;;;;;-7.08;72.67;96572.38;5123806;27;20057;-58
2021/01/11 07:52:04;;;;;;;36.30;19.75;;;;;;;-7.03;72.20;96580.47;5111249;27;20038;-54
2021/01/11 07:54:31;;;;;;;44.40;23.08;;;;;;;-7.03;72.25;96575.34;5109656;27;20037;-56
2021/01/11 07:56:58;;;;;;;32.78;19.83;;;;;;;-7.00;71.59;96580.22;5107771;27;20334;-56
2021/01/11 07:59:27;;;;;;;40.80;22.13;;;;;;;-7.01;71.89;96576.03;5094031;27;20062;-54
2021/01/11 08:01:57;;;;;;;38.20;22.10;;;;;;;-7.01;72.23;96573.47;5099419;27;20075;-55
2021/01/11 08:04:34;;;;;;;37.78;23.98;;;;;;;-6.98;71.94;96574.03;5093922;27;20061;-57
2021/01/11 08:07:06;;;;;;;39.08;21.98;;;;;;;-6.89;71.82;96585.25;5129087;27;20043;-55
2021/01/11 08:09:34;;;;;;;42.08;23.50;;;;;;;-6.87;71.98;96590.25;5131790;27;20051;-54
2021/01/11 08:12:05;;;;;;;45.03;23.35;;;;;;;-6.78;71.64;96588.66;5115451;27;20043;-54
2021/01/11 08:14:34;;;;;;;37.60;21.77;;;;;;;-6.72;71.24;96599.22;5132577;27;20034;-55
2021/01/11 08:17:05;;;;;;;42.40;25.33;;;;;;;-6.66;71.40;96587.63;5131064;27;20038;-54
2021/01/11 08:19:32;;;;;;;44.10;24.63;;;;;;;-6.73;71.38;96587.34;5120545;27;20043;-54
2021/01/11 08:22:02;;;;;;;39.75;21.52;;;;;;;-6.74;71.06;96582.34;5091097;27;20047;-54
2021/01/11 08:24:30;;;;;;;39.47;23.08;;;;;;;-6.71;70.90;96585.47;5113929;27;20050;-54
2021/01/11 08:27:07;;;;;;;36.67;21.67;;;;;;;-6.65;71.15;96584.13;5129484;27;20047;-54
2021/01/11 08:29:42;;;;;;;44.22;23.05;;;;;;;-6.56;70.68;96588.47;5109345;27;20046;-56
2021/01/11 08:32:17;;;;;;;41.33;23.77;;;;;;;-6.52;70.04;96587.25;5096740;27;20051;-58
2021/01/11 08:34:48;;;;;;;38.55;20.67;;;;;;;-6.50;69.76;96585.38;5097546;27;20043;-53
2021/01/11 08:37:30;;;;;;;34.55;18.38;;;;;;;-6.44;69.25;96586.59;5096330;27;20047;-55
2021/01/11 08:39:59;;;;;;;31.02;17.48;;;;;;;-6.43;69.31;96585.66;5109444;27;20059;-54
2021/01/11 08:42:28;;;;;;;38.50;19.17;;;;;;;-6.40;69.33;96582.81;5098714;27;20051;-54
2021/01/11 08:45:15;;;;;;;30.83;20.23;;;;;;;-6.30;69.06;96585.41;5106931;27;20038;-56
2021/01/11 08:47:43;;;;;;;38.92;23.17;;;;;;;-6.32;68.98;96579.59;5112715;27;20055;-54
2021/01/11 08:50:19;;;;;;;41.25;20.00;;;;;;;-6.25;68.79;96585.00;5127051;27;20058;-54
2021/01/11 08:52:46;;;;;;;31.67;19.58;;;;;;;-6.24;69.17;96584.88;5109262;27;20055;-54
2021/01/11 08:55:15;;;;;;;37.53;21.33;;;;;;;-6.22;69.62;96584.75;5114561;27;20042;-54
2021/01/11 08:57:54;;;;;;;37.70;19.23;;;;;;;-6.20;69.76;96583.66;5116923;27;20051;-54
2021/01/11 09:00:23;;;;;;;38.55;22.83;;;;;;;-6.16;69.31;96584.22;5124832;27;20604;-54
2021/01/11 09:02:50;;;;;;;32.42;20.73;;;;;;;-6.13;69.85;96585.69;5124198;27;20062;-54
2021/01/11 09:05:23;;;;;;;50.10;27.02;;;;;;;-6.15;69.87;96583.25;5139132;27;20051;-54
2021/01/11 09:07:55;;;;;;;38.70;21.90;;;;;;;-6.26;70.03;96583.38;5121459;27;20714;-59
2021/01/11 09:10:32;;;;;;;42.20;21.60;;;;;;;-6.26;69.92;96584.19;5102170;27;20062;-66
2021/01/11 09:13:17;;;;;;;;;;;;;;;-6.34;69.28;96586.63;5134475;27;20439;-55
2021/01/11 09:15:45;;;;;;;35.13;20.55;;;;;;;-6.54;69.87;96589.16;5132855;27;19930;-55
2021/01/11 09:18:14;;;;;;;41.00;21.88;;;;;;;-6.66;70.33;96587.63;5109009;27;20051;-56
2021/01/11 09:20:43;;;;;;;36.40;20.27;;;;;;;-6.84;70.89;96584.88;5120922;27;20069;-57
2021/01/11 09:23:12;;;;;;;35.03;21.45;;;;;;;-6.89;71.24;96587.03;5112497;27;20039;-56
2021/01/11 09:25:39;;;;;;;40.53;22.65;;;;;;;-6.85;71.07;96583.25;5131597;27;20070;-56
2021/01/11 09:28:08;;;;;;;33.60;20.17;;;;;;;-6.95;71.24;96578.91;5132438;27;20035;-55
2021/01/11 09:30:36;;;;;;;34.08;22.42;;;;;;;-6.97;71.34;96578.22;5108037;27;20043;-55
2021/01/11 09:33:05;;;;;;;34.60;20.70;;;;;;;-6.99;71.83;96579.28;5116964;27;20047;-55
2021/01/11 09:35:32;;;;;;;32.05;18.58;;;;;;;-7.00;71.46;96575.09;5136742;27;20439;-55
2021/01/11 09:37:59;;;;;;;36.85;21.83;;;;;;;-6.91;71.35;96588.91;5131997;27;20128;-56
2021/01/11 09:40:26;;;;;;;37.45;21.10;;;;;;;-6.91;71.36;96586.34;5138088;27;20054;-60
2021/01/11 09:42:54;;;;;;;34.58;20.83;;;;;;;-6.84;71.00;96583.13;5114188;27;20431;-55
2021/01/11 09:45:23;;;;;;;36.50;23.48;;;;;;;-6.78;70.79;96578.41;5126888;27;20051;-63
2021/01/11 09:47:52;;;;;;;39.33;22.63;;;;;;;-6.69;70.69;96580.19;5082266;27;20047;-55
2021/01/11 09:50:19;;;;;;;42.70;22.73;;;;;;;-6.65;71.14;96576.41;5105147;27;20043;-55
2021/01/11 09:52:48;;;;;;;37.03;22.10;;;;;;;-6.64;71.30;96567.78;5104085;27;20062;-55
2021/01/11 09:55:16;;;;;;;36.50;22.40;;;;;;;-6.57;70.91;96566.31;5133691;27;20046;-54
2021/01/11 09:57:43;;;;;;;41.08;22.50;;;;;;;-6.56;70.49;96567.94;5117822;27;20609;-55
2021/01/11 10:00:14;;;;;;;34.22;20.67;;;;;;;-6.53;70.56;96565.09;5130524;27;20047;-55
2021/01/11 10:02:49;;;;;;;39.95;21.73;;;;;;;-6.44;70.63;96567.81;5117171;27;20405;-55
2021/01/11 10:05:17;;;;;;;45.03;24.65;;;;;;;-6.43;70.19;96552.28;5133527;27;20039;-55
2021/01/11 10:07:45;;;;;;;44.42;21.65;;;;;;;-6.34;70.30;96555.81;5103841;27;20050;-55
2021/01/11 10:10:13;;;;;;;42.88;22.05;;;;;;;-6.28;69.95;96552.72;5116619;27;20510;-55
2021/01/11 10:12:41;;;;;;;37.17;21.63;;;;;;;-6.23;69.71;96553.13;5113399;27;20407;-57
2021/01/11 10:15:09;;;;;;;35.42;19.60;;;;;;;-6.12;70.47;96543.66;5127491;27;20047;-55
2021/01/11 10:17:40;;;;;;;38.58;21.52;;;;;;;-6.09;69.16;96543.41;5086359;27;20529;-55
2021/01/11 10:20:08;;;;;;;38.42;22.25;;;;;;;-6.10;69.20;96541.78;5085846;27;20058;-63
2021/01/11 10:22:38;;;;;;;39.13;21.00;;;;;;;-6.03;69.71;96542.84;5115055;27;20054;-56
2021/01/11 10:25:08;;;;;;;39.65;22.20;;;;;;;-5.95;69.31;96542.13;5122083;27;20046;-57
2021/01/11 10:27:35;;;;;;;43.65;25.52;;;;;;;-5.91;69.62;96535.78;5108283;27;20383;-55
2021/01/11 10:30:03;;;;;;;37.13;22.17;;;;;;;-5.79;69.54;96536.44;5136118;27;20039;-62
2021/01/11 10:32:30;;;;;;;39.08;21.35;;;;;;;-5.73;68.88;96530.75;5120224;27;20051;-55
2021/01/11 10:34:59;;;;;;;42.15;23.50;;;;;;;-5.71;69.47;96528.84;5131151;27;20042;-56
2021/01/11 10:37:27;;;;;;;35.38;20.20;;;;;;;-5.60;69.26;96525.31;5116637;27;20050;-57
2021/01/11 10:39:54;;;;;;;36.22;20.10;;;;;;;-5.51;68.77;96521.09;5091731;27;20057;-57
2021/01/11 10:42:24;;;;;;;37.50;19.25;;;;;;;-5.58;69.24;96501.09;5112015;27;20054;-61
2021/01/11 10:44:52;;;;;;;39.92;21.30;;;;;;;-5.39;69.31;96509.69;5115804;27;20043;-57
2021/01/11 10:47:19;;;;;;;38.45;22.48;;;;;;;-5.30;69.28;96514.00;5107792;27;20058;-55
2021/01/11 10:49:48;;;;;;;34.72;21.38;;;;;;;-5.18;68.89;96512.06;5094330;27;20047;-55
2021/01/11 10:52:15;;;;;;;41.67;22.45;;;;;;;-5.11;68.46;96504.59;5116104;27;20047;-55
2021/01/11 10:54:42;;;;;;;36.88;20.92;;;;;;;-5.04;67.86;96500.50;5127506;27;20049;-56
2021/01/11 10:57:09;;;;;;;38.92;19.65;;;;;;;-5.03;67.63;96511.56;5097996;27;20499;-54
2021/01/11 10:59:37;;;;;;;36.35;19.08;;;;;;;-5.02;68.42;96492.63;5130843;27;20525;-57
2021/01/11 11:02:05;;;;;;;35.55;20.30;;;;;;;-4.98;68.33;96494.75;5113413;27;20050;-55
2021/01/11 11:04:32;;;;;;;37.03;19.95;;;;;;;-4.85;68.16;96486.72;5114065;27;20048;-55
2021/01/11 11:06:59;;;;;;;32.28;17.48;;;;;;;-4.78;67.77;96486.94;5113816;27;20045;-58
2021/01/11 11:09:27;;;;;;;32.80;18.60;;;;;;;-4.74;67.35;96487.47;5114589;27;20059;-55
2021/01/11 11:11:55;;;;;;;30.13;17.80;;;;;;;-4.74;67.68;96477.16;5127386;27;20047;-59
2021/01/11 11:14:22;;;;;;;33.45;19.15;;;;;;;-4.64;67.82;96481.31;5111285;27;20689;-55
2021/01/11 11:16:49;;;;;;;29.63;17.95;;;;;;;-4.61;67.50;96471.63;5123808;27;20054;-56
2021/01/11 11:19:16;;;;;;;33.38;18.20;;;;;;;-4.51;67.55;96468.06;5126277;27;20039;-55
2021/01/11 11:21:43;;;;;;;28.55;17.02;;;;;;;-4.43;67.50;96459.59;5129574;27;20050;-57
2021/01/11 11:24:17;;;;;;;26.13;15.23;;;;;;;-4.39;67.21;96460.94;5128859;27;20053;-56
2021/01/11 11:26:45;;;;;;;33.25;17.35;;;;;;;-4.38;67.00;96447.09;5111234;27;20415;-56
2021/01/11 11:29:12;;;;;;;27.52;16.60;;;;;;;-4.32;66.83;96451.63;5116076;27;20379;-56
2021/01/11 11:31:41;;;;;;;33.10;17.20;;;;;;;-4.26;66.73;96442.50;5121803;27;20047;-59
2021/01/11 11:34:08;;;;;;;30.02;17.55;;;;;;;-4.28;66.22;96423.03;5118383;27;20246;-59